General Aviation Weather

Text Reports

Enter one or more of the following location identifiers separated by a space:

Zip Code, Four-Character ICAO or Three-Character IATA airport codes.

METAR - Aviation Routine Weather Report
KM30 - Metropolis, Illinois
Updated at 3:35 AM GMT on August 02, 2014 (10:35 PM CDT):
METAR KM30 020335Z AUTO 01006KT 10SM BKN100 BKN120 23/17 A3006 RMK AO2 T02290167
TAF - Terminal Area Forecast
KM30 - Metropolis, Illinois
Updated at 3:35 AM GMT on August 02, 2014 (10:35 PM CDT):
No TAF is currently available for this location.
Decoded:
No decoded TAF is available.
PIREP - Pilot Weather Report
KM30 - Metropolis, Illinois
Updated at 3:35 AM GMT on August 02, 2014 (10:35 PM CDT):
No PIREP is currently available for this location.
AIRMET - Airmens Meteorological Information
KM30 - Metropolis, Illinois
Updated at 3:35 AM GMT on August 02, 2014 (10:35 PM CDT):
No AIRMET is currently available for this location.
SIGMET - Significant Meteorological Information
KM30 - Metropolis, Illinois
Updated at 3:35 AM GMT on August 02, 2014 (10:35 PM CDT):
No SIGMET is currently available for this location.
NOTAM - Notice to Airmen
KM30 - Metropolis, Illinois
Updated at 3:35 AM GMT on August 02, 2014 (10:35 PM CDT):
No NOTAM is currently available for this location.
Forecast Area
KM30 - Metropolis, Illinois
Updated at 3:35 AM GMT on August 02, 2014 (10:35 PM CDT):
No NOTAM is currently available for this location.
Aviation Weather Maps